Zim, Minnesota
Current Conditions -  °F | °C
As of 3:53 AM on Wednesday 26 Nov 2014 (Local Time) from KHIB Reporting Station
Light Snow Light Snow  
Wind Chill: 20°   Ceiling: 1700
Heat Index: 20°   Visibility: 3mi
Dew Point: 11°   Wind: 0mph
Humidity: 68%   Direction: NA
Pressure: 30.08"   Gusts: NA
Location:  47.2679°N, 92.6342°W
Report Text: KHIB 260953Z AUTO 00000KT 3SM -SN OVC017 M07/M12 A3008 RMK AO2 SNB27 SLP211 P0000 T10671117
Loading
Personal Weather Stations






























Interactive Weather Map New forecast layout! Learn more

10-Day Weather Forecast

Advertisements
Track Severe Weather on mobile